Time;durP1;ratioP1;P1;durP2;ratioP2;P2;SDS_P1;SDS_P2;PMS_P1;PMS_P2;Temp;Humidity;BMP_temperature;BMP_pressure;BME280_temperature;BME280_humidity;BME280_pressure;Samples;Min_cycle;Max_cycle;Signal;HPM_P1;HPM_P2
2022/07/03 00:01:36;;;;;;;;;;;;;;;22.12;27.85;98290.50;4976244;28;885;-80
2022/07/03 00:04:02;;;;;;;;;;;;;;;21.92;28.05;98289.75;4976467;28;803;-80
2022/07/03 00:06:30;;;;;;;;;;;;;;;21.91;28.34;98296.63;4976399;28;914;-80
2022/07/03 00:08:55;;;;;;;;;;;;;;;21.94;28.05;98287.25;4976142;28;1967;-80
2022/07/03 00:11:21;;;;;;;;;;;;;;;21.70;28.41;98289.44;4976247;28;1360;-80
2022/07/03 00:13:46;;;;;;;;;;;;;;;21.82;28.31;98285.94;4975970;28;857;-80
2022/07/03 00:16:12;;;;;;;;;;;;;;;21.83;28.25;98276.97;4976126;28;806;-80
2022/07/03 00:18:37;;;;;;;;;;;;;;;21.73;28.42;98278.03;4992302;28;930;-80
2022/07/03 00:21:03;;;;;;;;;;;;;;;21.68;28.63;98275.72;4997639;28;822;-79
2022/07/03 00:23:29;;;;;;;;;;;;;;;21.79;28.31;98264.94;4997361;28;735;-80
2022/07/03 00:25:54;;;;;;;;;;;;;;;21.99;28.27;98262.03;4976372;28;1220;-80
2022/07/03 00:28:20;;;;;;;;;;;;;;;21.80;28.59;98260.84;4959724;28;1980;-79
2022/07/03 00:30:46;;;;;;;;;;;;;;;21.75;28.34;98269.88;4975548;28;880;-80
2022/07/03 00:33:12;;;;;;;;;;;;;;;21.82;28.55;98268.94;4917926;29;1094;-80
2022/07/03 00:35:37;;;;;;;;;;;;;;;21.95;28.03;98269.03;4880779;29;1143;-80
2022/07/03 00:38:03;;;;;;;;;;;;;;;21.76;28.26;98265.81;4880940;29;777;-80
2022/07/03 00:40:29;;;;;;;;;;;;;;;21.93;28.06;98268.69;4880693;29;890;-80
2022/07/03 00:42:54;;;;;;;;;;;;;;;21.91;28.05;98271.13;4865125;29;1089;-80
2022/07/03 00:45:20;;;;;;;;;;;;;;;21.81;28.50;98268.13;4880933;29;855;-80
2022/07/03 00:47:45;;;;;;;;;;;;;;;21.59;28.52;98272.66;4880597;29;1923;-80
2022/07/03 00:50:11;;;;;;;;;;;;;;;21.82;28.19;98263.25;4880542;29;922;-80
2022/07/03 00:52:37;;;;;;;;;;;;;;;21.56;28.62;98263.03;4880559;29;940;-80
2022/07/03 00:55:02;;;;;;;;;;;;;;;21.74;28.33;98267.50;4880573;29;819;-80
2022/07/03 00:57:28;;;;;;;;;;;;;;;21.76;28.26;98265.00;4880435;29;1081;-80
2022/07/03 00:59:54;;;;;;;;;;;;;;;21.62;28.29;98259.69;4865028;29;983;-80
2022/07/03 01:02:28;;;;;;;;;;;;;;;21.82;28.18;98258.41;4875413;29;911;-80
2022/07/03 01:04:58;;;;;;;;;;;;;;;21.87;27.89;98261.94;4895184;29;988;-80
2022/07/03 01:07:27;;;;;;;;;;;;;;;21.78;28.00;98257.69;4880333;29;1919;-80
2022/07/03 01:10:12;;;;;;;;;;;;;;;21.64;28.37;98260.81;4884295;29;840;-80
2022/07/03 01:12:43;;;;;;;;;;;;;;;21.78;28.07;98251.22;4880558;29;1236;-80
2022/07/03 01:15:11;;;;;;;;;;;;;;;21.75;28.06;98247.22;4880613;29;960;-80
2022/07/03 01:17:39;;;;;;;;;;;;;;;22.09;27.80;98257.34;4880966;29;813;-80
2022/07/03 01:20:06;;;;;;;;;;;;;;;21.76;28.06;98254.50;4880578;29;1154;-80
2022/07/03 01:22:42;;;;;;;;;;;;;;;21.97;27.63;98252.41;4880529;29;862;-79
2022/07/03 01:25:14;;;;;;;;;;;;;;;21.91;27.63;98260.59;4880860;29;1313;-80
2022/07/03 01:28:00;;;;;;;;;;;;;;;21.85;27.80;98257.50;4880294;29;1906;-80
2022/07/03 01:30:27;;;;;;;;;;;;;;;21.88;27.79;98260.72;4880330;29;1000;-79
2022/07/03 01:33:01;;;;;;;;;;;;;;;21.77;27.93;98261.75;4880235;29;932;-80
2022/07/03 01:35:27;;;;;;;;;;;;;;;21.71;27.98;98254.19;4867207;29;848;-79
2022/07/03 01:37:53;;;;;;;;;;;;;;;21.75;28.17;98252.09;4875768;29;1239;-80
2022/07/03 01:40:18;;;;;;;;;;;;;;;21.77;28.11;98250.41;4915932;29;888;-79
2022/07/03 01:42:44;;;;;;;;;;;;;;;21.95;27.88;98254.84;4905416;29;822;-79
2022/07/03 01:45:10;;;;;;;;;;;;;;;21.87;27.79;98247.78;4905440;29;783;-79
2022/07/03 01:47:36;;;;;;;;;;;;;;;21.84;28.01;98244.56;4905349;29;1907;-79
2022/07/03 01:50:01;;;;;;;;;;;;;;;21.78;28.00;98240.69;4941252;28;1234;-80
2022/07/03 01:52:27;;;;;;;;;;;;;;;21.79;28.06;98242.28;4978392;28;815;-79
2022/07/03 01:54:52;;;;;;;;;;;;;;;21.86;28.37;98241.28;4978785;28;878;-80
2022/07/03 01:57:18;;;;;;;;;;;;;;;21.78;28.20;98240.69;4978106;28;1090;-80
2022/07/03 01:59:43;;;;;;;;;;;;;;;21.82;27.98;98247.06;4978543;28;897;-79
2022/07/03 02:02:09;;;;;;;;;;;;;;;21.73;28.32;98244.03;4958875;29;1004;-80
2022/07/03 02:05:00;;;;;;;;;;;;;;;21.84;28.30;98244.56;4943400;29;1086;-79
2022/07/03 02:07:35;;;;;;;;;;;;;;;21.74;28.58;98228.63;4956849;29;1906;-79
2022/07/03 02:10:00;;;;;;;;;;;;;;;22.06;27.90;98233.53;4977854;28;826;-79
2022/07/03 02:12:27;;;;;;;;;;;;;;;21.79;28.20;98238.63;4978388;28;994;-79
2022/07/03 02:14:55;;;;;;;;;;;;;;;21.83;28.42;98242.19;4962106;28;708;-80
2022/07/03 02:17:21;;;;;;;;;;;;;;;21.79;28.39;98230.16;4946008;28;1173;-81
2022/07/03 02:19:53;;;;;;;;;;;;;;;21.89;28.13;98229.09;4978365;28;768;-80
2022/07/03 02:22:19;;;;;;;;;;;;;;;21.90;28.25;98236.34;4946062;28;966;-79
2022/07/03 02:24:45;;;;;;;;;;;;;;;21.84;28.58;98238.91;4977940;28;720;-80
2022/07/03 02:27:12;;;;;;;;;;;;;;;21.82;28.26;98234.94;4961757;28;1983;-80
2022/07/03 02:29:43;;;;;;;;;;;;;;;21.77;28.53;98230.59;4961802;28;876;-80
2022/07/03 02:32:11;;;;;;;;;;;;;;;21.62;29.04;98232.16;4979731;28;998;-79
2022/07/03 02:34:36;;;;;;;;;;;;;;;21.75;28.48;98221.72;4998297;28;766;-80
2022/07/03 02:37:07;;;;;;;;;;;;;;;21.76;28.41;98231.84;4998686;28;826;-80
2022/07/03 02:39:35;;;;;;;;;;;;;;;21.70;28.49;98222.25;4998275;28;743;-80
2022/07/03 02:42:02;;;;;;;;;;;;;;;22.19;27.86;98230.81;4981027;28;933;-79
2022/07/03 02:44:27;;;;;;;;;;;;;;;21.90;28.33;98235.56;4998344;28;973;-80
2022/07/03 02:47:00;;;;;;;;;;;;;;;21.74;28.55;98245.63;4998247;28;724;-80
2022/07/03 02:49:31;;;;;;;;;;;;;;;21.67;28.61;98245.81;4980490;28;897;-80
2022/07/03 02:52:02;;;;;;;;;;;;;;;21.64;28.53;98252.34;4997258;28;1312;-80
2022/07/03 02:54:28;;;;;;;;;;;;;;;21.66;28.63;98249.06;4977171;28;1360;-80
2022/07/03 02:57:07;;;;;;;;;;;;;;;21.66;28.56;98252.72;4961416;28;1227;-80
2022/07/03 02:59:39;;;;;;;;;;;;;;;21.85;28.52;98251.03;4961425;28;849;-80
2022/07/03 03:02:07;;;;;;;;;;;;;;;21.84;28.31;98258.75;4961409;28;836;-80
2022/07/03 03:04:33;;;;;;;;;;;;;;;21.99;27.96;98250.69;4960971;28;1334;-80
2022/07/03 03:07:02;;;;;;;;;;;;;;;21.70;28.28;98261.91;4961073;28;1977;-80
2022/07/03 03:09:34;;;;;;;;;;;;;;;21.60;28.79;98257.28;4945117;28;1109;-80
2022/07/03 03:12:02;;;;;;;;;;;;;;;21.83;28.29;98265.66;4960971;28;933;-80
2022/07/03 03:14:33;;;;;;;;;;;;;;;21.79;28.44;98259.25;4960704;28;811;-80
2022/07/03 03:16:59;;;;;;;;;;;;;;;21.85;28.07;98257.50;4938678;29;846;-80
2022/07/03 03:19:24;;;;;;;;;;;;;;;21.76;28.28;98260.16;4920811;29;781;-80
2022/07/03 03:21:57;;;;;;;;;;;;;;;21.88;28.29;98261.50;4881861;29;857;-80
2022/07/03 03:24:22;;;;;;;;;;;;;;;21.78;28.46;98259.72;4881519;29;941;-80
2022/07/03 03:26:47;;;;;;;;;;;;;;;21.75;28.38;98252.88;4900041;29;861;-80
2022/07/03 03:29:13;;;;;;;;;;;;;;;21.79;28.31;98255.63;4900306;29;1980;-80
2022/07/03 03:31:39;;;;;;;;;;;;;;;21.72;28.17;98258.66;4900242;29;878;-80
2022/07/03 03:34:04;;;;;;;;;;;;;;;21.69;28.34;98256.69;4900584;29;1242;-80
2022/07/03 03:36:30;;;;;;;;;;;;;;;21.56;28.41;98256.56;4900290;29;926;-80
2022/07/03 03:38:55;;;;;;;;;;;;;;;21.81;28.15;98265.31;4900283;29;952;-80
2022/07/03 03:41:21;;;;;;;;;;;;;;;21.69;28.36;98265.97;4900010;29;841;-80
2022/07/03 03:43:46;;;;;;;;;;;;;;;21.63;28.55;98256.41;4899998;29;967;-80
2022/07/03 03:46:14;;;;;;;;;;;;;;;21.59;28.60;98267.00;4900093;29;787;-80
2022/07/03 03:48:39;;;;;;;;;;;;;;;21.81;28.49;98264.47;4899888;29;1914;-80
2022/07/03 03:51:05;;;;;;;;;;;;;;;21.79;28.26;98264.94;4900045;29;828;-80
2022/07/03 03:53:30;;;;;;;;;;;;;;;21.88;28.21;98260.72;4904735;29;790;-80
2022/07/03 03:56:05;;;;;;;;;;;;;;;21.91;28.09;98259.81;4952051;29;812;-80
2022/07/03 03:58:31;;;;;;;;;;;;;;;21.76;28.53;98271.50;4995949;28;1313;-80
2022/07/03 04:00:57;;;;;;;;;;;;;;;21.94;28.14;98258.94;5015661;28;1084;-80
2022/07/03 04:03:22;;;;;;;;;;;;;;;21.79;28.56;98270.59;5015635;28;790;-80
2022/07/03 04:05:48;;;;;;;;;;;;;;;21.92;28.12;98267.09;5000957;28;880;-80
2022/07/03 04:08:13;;;;;;;;;;;;;;;21.89;28.34;98273.63;4998031;28;1906;-80
2022/07/03 04:10:39;;;;;;;;;;;;;;;21.72;28.87;98269.97;4997728;28;799;-80
2022/07/03 04:13:04;;;;;;;;;;;;;;;21.68;28.56;98264.38;4997772;28;712;-80
2022/07/03 04:15:30;;;;;;;;;;;;;;;21.70;28.81;98266.75;4997810;28;735;-80
2022/07/03 04:17:55;;;;;;;;;;;;;;;21.88;28.42;98266.38;4956969;29;1229;-80
2022/07/03 04:20:20;;;;;;;;;;;;;;;21.78;28.63;98269.00;4956862;29;906;-79
2022/07/03 04:22:48;;;;;;;;;;;;;;;21.76;28.64;98265.81;4956737;29;1162;-80
2022/07/03 04:25:13;;;;;;;;;;;;;;;21.88;28.44;98267.16;4940912;29;826;-80
2022/07/03 04:27:39;;;;;;;;;;;;;;;22.08;28.16;98267.09;4956680;29;1989;-80
2022/07/03 04:30:09;;;;;;;;;;;;;;;21.81;28.59;98272.97;4956632;29;920;-80
2022/07/03 04:32:35;;;;;;;;;;;;;;;21.74;28.52;98268.28;4956766;29;852;-80
2022/07/03 04:35:00;;;;;;;;;;;;;;;21.65;29.20;98270.91;4911433;29;1336;-80
2022/07/03 04:37:26;;;;;;;;;;;;;;;21.79;28.98;98275.47;4899385;29;950;-80
2022/07/03 04:39:51;;;;;;;;;;;;;;;21.70;28.90;98273.22;4807224;29;1223;-80
2022/07/03 04:42:17;;;;;;;;;;;;;;;21.78;29.11;98271.84;4807272;29;919;-80
2022/07/03 04:45:00;;;;;;;;;;;;;;;21.75;28.79;98275.53;4807203;29;895;-80
2022/07/03 04:47:26;;;;;;;;;;;;;;;21.70;29.08;98278.88;4807084;29;1915;-80
2022/07/03 04:49:51;;;;;;;;;;;;;;;21.59;29.15;98278.34;4779004;29;907;-80
2022/07/03 04:52:17;;;;;;;;;;;;;;;21.82;28.85;98281.06;4807591;29;928;-80
2022/07/03 04:54:43;;;;;;;;;;;;;;;21.89;28.74;98284.97;4839001;29;1112;-80
2022/07/03 04:57:08;;;;;;;;;;;;;;;21.93;28.66;98280.00;4822439;29;1306;-80
2022/07/03 04:59:33;;;;;;;;;;;;;;;21.69;29.43;98277.31;4807292;29;823;-80
2022/07/03 05:01:59;;;;;;;;;;;;;;;21.65;29.27;98276.56;4807131;29;921;-80
2022/07/03 05:04:24;;;;;;;;;;;;;;;21.53;29.37;98285.75;4789176;30;1304;-80
2022/07/03 05:06:50;;;;;;;;;;;;;;;21.66;29.29;98283.84;4804192;29;911;-80
2022/07/03 05:09:15;;;;;;;;;;;;;;;21.59;29.44;98273.47;4823093;29;1903;-80
2022/07/03 05:11:41;;;;;;;;;;;;;;;21.74;29.37;98284.47;4856794;29;1123;-80
2022/07/03 05:14:06;;;;;;;;;;;;;;;21.97;28.85;98287.19;4846764;29;1234;-80
2022/07/03 05:16:31;;;;;;;;;;;;;;;21.86;29.12;98289.44;4846651;29;899;-80
2022/07/03 05:18:57;;;;;;;;;;;;;;;21.85;29.06;98283.00;4847006;29;909;-80
2022/07/03 05:21:22;;;;;;;;;;;;;;;21.90;28.93;98283.72;4847242;29;1341;-80
2022/07/03 05:23:48;;;;;;;;;;;;;;;21.83;29.25;98284.69;4828380;29;881;-80
2022/07/03 05:26:13;;;;;;;;;;;;;;;21.82;29.46;98286.72;4841517;29;920;-80
2022/07/03 05:28:39;;;;;;;;;;;;;;;22.04;28.89;98286.22;4846805;29;1903;-80
2022/07/03 05:31:04;;;;;;;;;;;;;;;22.73;29.24;98289.75;5266910;23;4057;-80
2022/07/03 05:33:30;;;;;;;;;;;;;;;22.80;30.90;98292.41;5154676;23;3957;-80
2022/07/03 05:35:55;;;;;;;;;;;;;;;22.80;31.95;98294.47;5020494;28;722;-80
2022/07/03 05:41:05;;;;;;;;;;;;;;;22.39;32.19;98300.78;5020260;28;735;-80
2022/07/03 05:47:05;;;;;;;;;;;;;;;22.11;31.14;98297.41;4978729;28;1983;-80
2022/07/03 05:49:30;;;;;;;;;;;;;;;22.10;30.65;98295.78;4979077;28;799;-80
2022/07/03 05:51:55;;;;;;;;;;;;;;;22.35;29.98;98298.84;4959217;29;822;-80
2022/07/03 05:54:21;;;;;;;;;;;;;;;22.19;29.58;98298.84;4943688;29;936;-80
2022/07/03 05:56:46;;;;;;;;;;;;;;;22.18;29.75;98307.78;4943648;29;986;-80
2022/07/03 05:59:12;;;;;;;;;;;;;;;22.07;29.71;98305.16;4959227;29;1034;-80
2022/07/03 06:01:37;;;;;;;;;;;;;;;22.12;29.40;98310.31;4959240;29;793;-80
2022/07/03 06:04:03;;;;;;;;;;;;;;;21.91;29.90;98316.47;4959112;29;949;-80
2022/07/03 06:06:28;;;;;;;;;;;;;;;22.02;29.52;98305.69;4940177;29;883;-79
2022/07/03 06:12:29;;;;;;;;;;;;;;;22.04;29.12;98308.88;4920829;29;928;-79
2022/07/03 06:14:54;;;;;;;;;;;;;;;21.77;29.42;98312.72;4933528;29;907;-79
2022/07/03 06:17:20;;;;;;;;;;;;;;;21.97;29.14;98309.06;4939844;29;831;-80
2022/07/03 06:19:45;;;;;;;;;;;;;;;21.95;29.08;98322.84;4939650;29;967;-79
2022/07/03 06:22:10;;;;;;;;;;;;;;;21.94;29.27;98312.75;4943683;29;943;-80
2022/07/03 06:24:36;;;;;;;;;;;;;;;21.84;29.12;98323.91;4958855;29;932;-79
2022/07/03 06:27:01;;;;;;;;;;;;;;;22.20;28.58;98320.25;4958946;29;881;-79
2022/07/03 06:29:27;;;;;;;;;;;;;;;21.97;28.91;98326.06;4977777;28;1988;-79
2022/07/03 06:31:52;;;;;;;;;;;;;;;21.98;28.84;98322.00;4977868;28;917;-80
2022/07/03 06:34:18;;;;;;;;;;;;;;;21.90;28.84;98317.72;4978397;28;1237;-80
2022/07/03 06:36:43;;;;;;;;;;;;;;;21.89;29.03;98318.94;4977847;28;1029;-79
2022/07/03 06:39:09;;;;;;;;;;;;;;;21.94;29.00;98321.25;4961568;28;1291;-79
2022/07/03 06:41:34;;;;;;;;;;;;;;;21.96;28.79;98318.78;4977718;28;844;-79
2022/07/03 06:43:59;;;;;;;;;;;;;;;21.94;28.87;98324.09;4958259;29;1233;-79
2022/07/03 06:46:25;;;;;;;;;;;;;;;21.59;29.36;98318.78;4948593;29;965;-78
2022/07/03 06:48:50;;;;;;;;;;;;;;;21.91;29.01;98322.13;4939087;29;1985;-79
2022/07/03 06:51:16;;;;;;;;;;;;;;;21.91;28.56;98324.97;4925481;29;980;-79
2022/07/03 06:53:41;;;;;;;;;;;;;;;21.89;28.78;98313.28;4900974;29;961;-79
2022/07/03 06:56:06;;;;;;;;;;;;;;;21.98;28.36;98324.81;4882541;29;881;-80
2022/07/03 06:58:32;;;;;;;;;;;;;;;21.76;29.07;98333.81;4882826;29;968;-80
2022/07/03 07:00:57;;;;;;;;;;;;;;;21.88;28.48;98323.81;4882390;29;824;-79
2022/07/03 07:03:23;;;;;;;;;;;;;;;21.87;28.79;98327.09;4901218;29;1308;-80
2022/07/03 07:05:48;;;;;;;;;;;;;;;21.90;28.48;98326.22;4881079;29;1399;-79
2022/07/03 07:08:14;;;;;;;;;;;;;;;21.92;28.65;98326.59;4863421;29;1919;-79
2022/07/03 07:10:39;;;;;;;;;;;;;;;22.00;28.23;98322.34;4863581;29;997;-80
2022/07/03 07:13:05;;;;;;;;;;;;;;;21.84;28.75;98323.91;4863803;29;953;-79
2022/07/03 07:15:30;;;;;;;;;;;;;;;21.76;28.81;98315.97;4863406;29;934;-79
2022/07/03 07:17:55;;;;;;;;;;;;;;;21.87;28.74;98315.78;4894404;29;825;-79
2022/07/03 07:20:21;;;;;;;;;;;;;;;22.04;28.14;98320.22;4863634;29;832;-79
2022/07/03 07:22:46;;;;;;;;;;;;;;;22.04;28.37;98320.22;4882346;29;1406;-79
2022/07/03 07:25:12;;;;;;;;;;;;;;;21.95;28.29;98329.31;4900364;29;942;-79
2022/07/03 07:27:37;;;;;;;;;;;;;;;21.84;28.62;98329.56;4884706;29;1911;-80
2022/07/03 07:30:03;;;;;;;;;;;;;;;21.81;28.78;98327.63;4881863;29;866;-79
2022/07/03 07:32:28;;;;;;;;;;;;;;;21.77;28.40;98324.06;4844228;29;1082;-79
2022/07/03 07:35:25;;;;;;;;;;;;;;;21.73;28.49;98317.66;4860867;29;1130;-80
2022/07/03 07:37:51;;;;;;;;;;;;;;;21.87;28.34;98321.44;4862957;29;935;-79
2022/07/03 07:40:16;;;;;;;;;;;;;;;21.78;28.41;98328.50;4868367;29;926;-80
2022/07/03 07:42:42;;;;;;;;;;;;;;;22.03;28.07;98330.75;4881543;29;962;-79
2022/07/03 07:45:08;;;;;;;;;;;;;;;21.75;28.75;98332.19;4882191;29;902;-80
2022/07/03 07:47:34;;;;;;;;;;;;;;;21.74;28.82;98319.25;4862660;29;1903;-79
2022/07/03 07:49:59;;;;;;;;;;;;;;;21.93;28.47;98331.00;4862908;29;967;-80
2022/07/03 07:56:00;;;;;;;;;;;;;;;21.68;28.87;98337.22;4834037;29;894;-80
2022/07/03 07:58:25;;;;;;;;;;;;;;;21.76;28.62;98345.13;4844475;29;807;-79
2022/07/03 08:06:19;;;;;;;;;;;;;;;21.75;28.79;98346.34;4844641;29;944;-79
2022/07/03 08:08:44;;;;;;;;;;;;;;;21.97;28.32;98345.91;4881578;29;1914;-79
2022/07/03 08:11:09;;;;;;;;;;;;;;;21.75;28.59;98343.50;4918736;29;1096;-79
2022/07/03 08:13:35;;;;;;;;;;;;;;;21.85;28.41;98353.81;4937469;29;882;-79
2022/07/03 08:16:00;;;;;;;;;;;;;;;21.75;28.63;98343.50;4937667;29;808;-80
2022/07/03 08:18:26;;;;;;;;;;;;;;;21.66;28.75;98351.81;4946258;29;846;-79
2022/07/03 08:20:51;;;;;;;;;;;;;;;21.75;28.47;98357.69;4937474;29;1037;-79
2022/07/03 08:23:17;;;;;;;;;;;;;;;21.82;28.80;98363.22;4954826;28;809;-80
2022/07/03 08:25:43;;;;;;;;;;;;;;;21.79;28.42;98363.28;4918785;29;1101;-80
2022/07/03 08:28:08;;;;;;;;;;;;;;;21.77;28.79;98360.88;4918286;29;1915;-79
2022/07/03 08:30:34;;;;;;;;;;;;;;;21.81;28.39;98353.13;4902788;29;958;-80
2022/07/03 08:32:59;;;;;;;;;;;;;;;21.83;28.55;98356.28;4918245;29;1224;-79
2022/07/03 08:35:25;;;;;;;;;;;;;;;21.69;28.65;98362.25;4883924;29;952;-79
2022/07/03 08:37:50;;;;;;;;;;;;;;;21.77;28.61;98358.06;4899453;29;954;-79
2022/07/03 08:40:17;;;;;;;;;;;;;;;21.84;28.31;98369.22;4862101;29;879;-79
2022/07/03 08:42:42;;;;;;;;;;;;;;;21.83;28.38;98361.97;4846785;29;1092;-79
2022/07/03 08:45:10;;;;;;;;;;;;;;;21.69;28.69;98356.59;4837699;29;1358;-79
2022/07/03 08:47:36;;;;;;;;;;;;;;;21.92;28.71;98354.91;4829435;29;1915;-79
2022/07/03 08:50:02;;;;;;;;;;;;;;;21.79;28.54;98355.56;4829178;29;958;-79
2022/07/03 08:52:28;;;;;;;;;;;;;;;21.71;28.56;98362.63;4847204;29;1078;-79
2022/07/03 08:54:53;;;;;;;;;;;;;;;21.81;28.77;98369.28;4829084;29;946;-79
2022/07/03 08:57:18;;;;;;;;;;;;;;;21.90;28.52;98366.66;4813212;29;1023;-79
2022/07/03 08:59:45;;;;;;;;;;;;;;;21.92;28.28;98369.09;4771911;30;908;-79
2022/07/03 09:02:10;;;;;;;;;;;;;;;21.95;28.38;98365.34;4792681;30;989;-79
2022/07/03 09:04:36;;;;;;;;;;;;;;;21.71;28.47;98370.31;4828891;29;997;-79
2022/07/03 09:07:01;;;;;;;;;;;;;;;21.85;28.37;98364.34;4857864;29;977;-79
2022/07/03 09:09:27;;;;;;;;;;;;;;;21.95;28.54;98365.34;4847159;29;1971;-79
2022/07/03 09:11:53;;;;;;;;;;;;;;;21.84;28.56;98368.41;4826659;29;1064;-78
2022/07/03 09:14:18;;;;;;;;;;;;;;;21.98;28.57;98364.50;4807590;29;951;-79
2022/07/03 09:16:44;;;;;;;;;;;;;;;21.73;28.73;98363.00;4833319;29;945;-79
2022/07/03 09:19:09;;;;;;;;;;;;;;;21.90;28.44;98368.69;4828847;29;931;-79
2022/07/03 09:21:38;;;;;;;;;;;;;;;21.81;28.56;98367.28;4828429;29;854;-79
2022/07/03 09:27:39;;;;;;;;;;;;;;;21.74;28.79;98363.78;4828428;29;1919;-79
2022/07/03 09:30:05;;;;;;;;;;;;;;;21.81;28.57;98364.44;4846996;29;905;-79
2022/07/03 09:32:32;;;;;;;;;;;;;;;21.85;28.52;98355.84;4831425;29;886;-79
2022/07/03 09:35:13;;;;;;;;;;;;;;;21.85;28.50;98365.16;4850927;29;1291;-79
2022/07/03 09:37:38;;;;;;;;;;;;;;;21.79;28.63;98360.44;4865366;29;930;-79
2022/07/03 09:40:04;;;;;;;;;;;;;;;21.82;28.64;98362.41;4849443;29;895;-79
2022/07/03 09:42:29;;;;;;;;;;;;;;;21.81;28.39;98358.78;4865400;29;871;-79
2022/07/03 09:44:55;;;;;;;;;;;;;;;21.95;28.35;98371.03;4883719;29;882;-79
2022/07/03 09:47:21;;;;;;;;;;;;;;;21.92;28.41;98357.75;4883774;29;1986;-79
2022/07/03 09:49:47;;;;;;;;;;;;;;;21.76;28.51;98356.47;4855292;29;899;-79
2022/07/03 09:52:28;;;;;;;;;;;;;;;21.73;28.94;98363.00;4864868;29;995;-79
2022/07/03 09:54:58;;;;;;;;;;;;;;;21.84;28.73;98357.09;4864394;29;971;-79
2022/07/03 09:57:23;;;;;;;;;;;;;;;21.89;28.78;98358.63;4898791;29;971;-79
2022/07/03 09:59:49;;;;;;;;;;;;;;;21.85;28.59;98353.81;4917948;29;1114;-79
2022/07/03 10:02:14;;;;;;;;;;;;;;;21.82;28.57;98354.72;4958522;29;883;-79
2022/07/03 10:04:40;;;;;;;;;;;;;;;21.62;29.11;98348.25;4959443;29;1106;-79
2022/07/03 10:10:43;;;;;;;;;;;;;;;21.77;28.87;98349.56;4959038;29;829;-79
2022/07/03 10:13:08;;;;;;;;;;;;;;;21.87;28.65;98335.59;4958995;29;818;-79
2022/07/03 10:15:37;;;;;;;;;;;;;;;21.85;28.37;98348.16;4942724;29;979;-79
2022/07/03 10:18:07;;;;;;;;;;;;;;;21.70;28.81;98352.53;4939589;29;1065;-79
2022/07/03 10:20:36;;;;;;;;;;;;;;;21.71;28.80;98345.66;4845479;29;1011;-79
2022/07/03 10:23:02;;;;;;;;;;;;;;;21.64;28.75;98347.81;4817265;29;970;-79
2022/07/03 10:25:27;;;;;;;;;;;;;;;21.63;28.64;98341.34;4809156;29;947;-79
2022/07/03 10:27:53;;;;;;;;;;;;;;;21.72;28.67;98338.75;4827054;29;1996;-79
2022/07/03 10:30:19;;;;;;;;;;;;;;;21.88;28.34;98331.53;4802033;29;844;-80
2022/07/03 10:32:45;;;;;;;;;;;;;;;21.88;28.41;98323.03;4845476;29;944;-79
2022/07/03 10:35:11;;;;;;;;;;;;;;;21.97;28.29;98326.06;4863580;29;1137;-80
2022/07/03 10:37:50;;;;;;;;;;;;;;;21.79;28.38;98330.06;4863752;29;947;-80
2022/07/03 10:46:17;;;;;;;;;;;;;;;21.73;28.55;98329.00;4900751;29;893;-79
2022/07/03 10:48:52;;;;;;;;;;;;;;;21.88;28.20;98323.03;4900936;29;1976;-79
2022/07/03 10:51:18;;;;;;;;;;;;;;;21.67;28.49;98316.59;4908316;29;1062;-79
2022/07/03 10:53:43;;;;;;;;;;;;;;;21.85;28.29;98319.81;4920148;29;938;-79
2022/07/03 10:56:09;;;;;;;;;;;;;;;21.90;28.42;98317.72;4900646;29;1103;-79
2022/07/03 10:58:53;;;;;;;;;;;;;;;21.85;28.37;98308.50;4886751;29;859;-82
2022/07/03 11:01:30;;;;;;;;;;;;;;;21.64;28.63;98311.81;4882257;29;821;-79
2022/07/03 11:04:01;;;;;;;;;;;;;;;21.72;28.64;98303.97;4882035;29;953;-79
2022/07/03 11:06:42;;;;;;;;;;;;;;;21.67;28.81;98308.09;4917373;29;914;-79
2022/07/03 11:09:08;;;;;;;;;;;;;;;21.54;28.80;98315.66;4946217;29;1914;-79
2022/07/03 11:11:55;;;;;;;;;;;;;;;21.57;28.80;98314.81;4946267;29;921;-79
2022/07/03 11:14:21;;;;;;;;;;;;;;;21.69;28.46;98305.63;4949096;29;889;-79
2022/07/03 11:16:46;;;;;;;;;;;;;;;21.65;28.41;98304.91;4973536;28;941;-79
2022/07/03 11:19:11;;;;;;;;;;;;;;;21.78;28.23;98303.00;4996328;28;762;-79
2022/07/03 11:21:38;;;;;;;;;;;;;;;21.91;28.05;98311.59;4996261;28;808;-79
2022/07/03 11:24:08;;;;;;;;;;;;;;;21.96;28.01;98290.44;4976945;28;819;-79
2022/07/03 11:26:34;;;;;;;;;;;;;;;21.76;28.47;98294.16;4960852;28;832;-79
2022/07/03 11:28:59;;;;;;;;;;;;;;;21.92;28.16;98289.75;4976831;28;1918;-79
2022/07/03 11:31:25;;;;;;;;;;;;;;;21.65;28.79;98290.72;4919108;29;981;-79
2022/07/03 11:33:51;;;;;;;;;;;;;;;21.85;28.24;98296.38;4892556;29;1233;-79
2022/07/03 11:36:16;;;;;;;;;;;;;;;21.68;28.57;98287.03;4899980;29;917;-79
2022/07/03 11:38:45;;;;;;;;;;;;;;;21.61;28.70;98281.53;4900131;29;751;-79
2022/07/03 11:41:11;;;;;;;;;;;;;;;21.76;28.30;98288.50;4884350;29;796;-79
2022/07/03 11:47:12;;;;;;;;;;;;;;;21.83;28.37;98282.66;4899956;29;804;-79
2022/07/03 11:49:38;;;;;;;;;;;;;;;21.90;28.49;98280.88;4899839;29;1883;-79
2022/07/03 11:52:04;;;;;;;;;;;;;;;21.84;28.48;98283.44;4897329;29;906;-79
2022/07/03 11:54:48;;;;;;;;;;;;;;;21.79;28.29;98293.25;4881003;29;966;-79
2022/07/03 11:57:14;;;;;;;;;;;;;;;21.82;28.23;98286.72;4862590;29;887;-79
2022/07/03 11:59:39;;;;;;;;;;;;;;;21.94;28.17;98292.94;4862768;29;873;-79
2022/07/03 12:02:05;;;;;;;;;;;;;;;21.90;28.63;98287.34;4875954;29;823;-79
2022/07/03 12:04:30;;;;;;;;;;;;;;;21.71;28.48;98285.34;4899928;29;838;-79
2022/07/03 12:07:14;;;;;;;;;;;;;;;21.90;28.13;98292.22;4900185;29;953;-80
2022/07/03 12:09:39;;;;;;;;;;;;;;;21.66;28.57;98278.19;4899883;29;1981;-80
2022/07/03 12:12:05;;;;;;;;;;;;;;;21.71;28.66;98280.50;4899524;29;927;-79
2022/07/03 12:14:33;;;;;;;;;;;;;;;21.73;28.43;98285.72;4899649;29;855;-79
2022/07/03 12:16:59;;;;;;;;;;;;;;;21.87;28.33;98293.91;4899796;29;872;-80
2022/07/03 12:19:24;;;;;;;;;;;;;;;21.96;28.12;98279.13;4899511;29;1268;-79
2022/07/03 12:21:50;;;;;;;;;;;;;;;21.79;28.32;98281.94;4899690;29;1004;-79
2022/07/03 12:24:15;;;;;;;;;;;;;;;21.82;28.46;98281.06;4899437;29;1143;-79
2022/07/03 12:26:41;;;;;;;;;;;;;;;21.96;28.23;98267.78;4899361;29;962;-80
2022/07/03 12:29:24;;;;;;;;;;;;;;;21.71;28.56;98268.34;4883110;29;1984;-80
2022/07/03 12:31:50;;;;;;;;;;;;;;;21.84;28.18;98272.91;4882623;29;1367;-79
2022/07/03 12:34:16;;;;;;;;;;;;;;;21.87;28.33;98276.13;4918100;29;1201;-79
2022/07/03 12:36:54;;;;;;;;;;;;;;;21.87;28.15;98265.56;4899004;29;996;-79
2022/07/03 12:39:19;;;;;;;;;;;;;;;21.83;28.12;98265.66;4899224;29;881;-80
2022/07/03 12:41:45;;;;;;;;;;;;;;;21.77;28.61;98275.13;4899083;29;912;-79
2022/07/03 12:44:10;;;;;;;;;;;;;;;21.84;28.43;98270.06;4899378;29;977;-79
2022/07/03 12:46:36;;;;;;;;;;;;;;;21.78;28.37;98274.66;4899252;29;839;-79
2022/07/03 12:49:08;;;;;;;;;;;;;;;21.83;28.36;98262.81;4880452;29;1986;-80
2022/07/03 12:51:37;;;;;;;;;;;;;;;21.66;28.44;98264.03;4898668;29;860;-79
2022/07/03 12:54:03;;;;;;;;;;;;;;;21.81;28.31;98268.13;4898953;29;925;-79
2022/07/03 12:59:45;;;;;;;;;;;;;;;22.02;27.74;98263.19;4899399;29;897;-80
2022/07/03 13:02:10;;;;;;;;;;;;;;;21.90;28.35;98263.88;4878157;29;1111;-79
2022/07/03 13:04:36;;;;;;;;;;;;;;;21.82;28.46;98264.06;4880692;29;945;-79
2022/07/03 13:07:05;;;;;;;;;;;;;;;21.89;28.00;98273.63;4880376;29;924;-79
2022/07/03 13:09:31;;;;;;;;;;;;;;;21.88;28.27;98266.38;4880324;29;1984;-79
2022/07/03 13:11:57;;;;;;;;;;;;;;;21.71;28.43;98262.69;4891748;29;1167;-79
2022/07/03 13:14:24;;;;;;;;;;;;;;;21.72;28.50;98256.59;4899214;29;917;-79
2022/07/03 13:16:50;;;;;;;;;;;;;;;21.66;28.62;98254.72;4880110;29;923;-79
2022/07/03 13:19:16;;;;;;;;;;;;;;;21.75;28.34;98247.22;4861448;29;1099;-79
2022/07/03 13:21:43;;;;;;;;;;;;;;;21.68;28.41;98253.06;4861909;29;862;-80
2022/07/03 13:24:08;;;;;;;;;;;;;;;21.77;28.47;98256.09;4842983;29;895;-79
2022/07/03 13:26:34;;;;;;;;;;;;;;;21.78;28.53;98260.50;4843387;29;957;-79
2022/07/03 13:28:59;;;;;;;;;;;;;;;21.77;28.42;98249.63;4843473;29;1918;-79
2022/07/03 13:31:25;;;;;;;;;;;;;;;21.65;28.48;98247.47;4845593;29;937;-79
2022/07/03 13:33:50;;;;;;;;;;;;;;;21.81;28.23;98253.97;4860526;29;1253;-79
2022/07/03 13:36:18;;;;;;;;;;;;;;;21.89;28.10;98253.78;4864930;29;937;-79
2022/07/03 13:38:44;;;;;;;;;;;;;;;21.82;28.18;98255.56;4849815;29;880;-79
2022/07/03 13:41:10;;;;;;;;;;;;;;;21.83;28.37;98253.53;4846747;29;1225;-80